PWSweather.com
Personal Weather Stations
Station Observations
01979
Ravne Pri CerknemSI 5282

Ravne Pri CerknemSI 5282

Lat: 46.1213916, Lon: 13.952774299999987

Elevation: 2244.094488

Station Type: Techo Line WS2307

www.vremenska.postaja.andre.si/

High Low Average
Temperature 43.2°F6.2°C 33.6°F0.9°C 36.7°F2.6°C
Dew Point 40.5°F4.7°C 30.8°F-0.7°C 34.5°F1.4°C
Winds 14.9 mph 24.0 kmh Calm Calm 2.0 mph S3.2 kmh S
Wind Gusts 20.1 mph32.3 kmh -- 4.0 mph6.4 kmh
Humidity 97% 84% 92%
Pressure 30.16 in1021.3 mb 29.70 in1005.8 mb -
Precipitation 0.49 in12.4 mm - -
Hour Temp Dew Point Humidity Winds Wind Gusts Pressure Precip Precip Rate Daily Precip Total
12:00 AM 35.2°F1.8°C 31.5°F-0.3°C 86% 2.2 mph NNW3.5 kmh NNW 5.6 mph9.0 kmh 30.15 in1021.0 mb 0.00 in0.0 mm 0.00 in0.0 mm 0.00 in0.0 mm
12:10 AM 35.2°F1.8°C 31.5°F-0.3°C 86% 1.5 mph NNW2.4 kmh NNW 3.4 mph5.5 kmh 30.16 in1021.3 mb 0.00 in0.0 mm 0.00 in0.0 mm 0.00 in0.0 mm
12:20 AM 35.2°F1.8°C 31.2°F-0.4°C 85% 1.7 mph NNW2.7 kmh NNW 7.6 mph12.2 kmh 30.16 in1021.3 mb 0.00 in0.0 mm 0.00 in0.0 mm 0.00 in0.0 mm
12:30 AM 35.2°F1.8°C 31.5°F-0.3°C 86% 0.6 mph NNW1.0 kmh NNW 2.9 mph4.7 kmh 30.15 in1021.0 mb 0.00 in0.0 mm 0.00 in0.0 mm 0.00 in0.0 mm
12:40 AM 35.2°F1.8°C 31.5°F-0.3°C 86% 1.5 mph NNW2.4 kmh NNW 4.7 mph7.6 kmh 30.16 in1021.3 mb 0.00 in0.0 mm 0.00 in0.0 mm 0.00 in0.0 mm
12:50 AM 35.2°F1.8°C 31.8°F-0.1°C 87% 2.7 mph N4.3 kmh N 7.6 mph12.2 kmh 30.16 in1021.3 mb 0.00 in0.0 mm 0.00 in0.0 mm 0.00 in0.0 mm
01:00 AM 34.9°F1.6°C 31.4°F-0.3°C 87% 0.5 mph N0.8 kmh N 2.9 mph4.7 kmh 30.16 in1021.3 mb 0.00 in0.0 mm 0.00 in0.0 mm 0.00 in0.0 mm
01:10 AM 34.9°F1.6°C 31.7°F-0.2°C 88% 0.6 mph NNW1.0 kmh NNW 2.9 mph4.7 kmh 30.15 in1021.0 mb 0.00 in0.0 mm 0.00 in0.0 mm 0.00 in0.0 mm
01:20 AM 34.9°F1.6°C 31.7°F-0.2°C 88% Calm Calm 0.4 mph0.6 kmh 30.15 in1021.0 mb 0.00 in0.0 mm 0.00 in0.0 mm 0.00 in0.0 mm
01:30 AM 34.7°F1.5°C 31.5°F-0.3°C 88% Calm Calm 1.1 mph1.8 kmh 30.15 in1021.0 mb 0.00 in0.0 mm 0.00 in0.0 mm 0.00 in0.0 mm
01:40 AM 34.9°F1.6°C 31.7°F-0.2°C 88% 2.3 mph N3.7 kmh N 5.4 mph8.7 kmh 30.16 in1021.3 mb 0.00 in0.0 mm 0.00 in0.0 mm 0.00 in0.0 mm
01:50 AM 35.2°F1.8°C 32.0°F0.0°C 88% 2.4 mph NW3.9 kmh NW 4.9 mph7.9 kmh 30.15 in1021.0 mb 0.00 in0.0 mm 0.00 in0.0 mm 0.00 in0.0 mm
02:00 AM 35.1°F1.7°C 31.9°F-0.1°C 88% 0.8 mph N1.3 kmh N 3.8 mph6.1 kmh 30.16 in1021.3 mb 0.00 in0.0 mm 0.00 in0.0 mm 0.00 in0.0 mm
02:01 AM 34.9°F1.6°C 31.7°F-0.2°C 88% 2.8 mph N4.5 kmh N 5.4 mph8.7 kmh 30.15 in1021.0 mb 0.00 in0.0 mm 0.00 in0.0 mm 0.00 in0.0 mm
02:10 AM 34.9°F1.6°C 31.7°F-0.2°C 88% 1.0 mph NW1.6 kmh NW 5.4 mph8.7 kmh 30.16 in1021.3 mb 0.00 in0.0 mm 0.00 in0.0 mm 0.00 in0.0 mm
02:20 AM 34.7°F1.5°C 31.5°F-0.3°C 88% Calm Calm 0.2 mph0.3 kmh 30.16 in1021.3 mb 0.00 in0.0 mm 0.00 in0.0 mm 0.00 in0.0 mm
02:30 AM 34.3°F1.3°C 31.4°F-0.3°C 89% 1.0 mph NNW1.6 kmh NNW 3.6 mph5.8 kmh 30.15 in1021.0 mb 0.00 in0.0 mm 0.00 in0.0 mm 0.00 in0.0 mm
02:40 AM 34.3°F1.3°C 31.4°F-0.3°C 89% Calm Calm -- 30.15 in1021.0 mb 0.00 in0.0 mm 0.00 in0.0 mm 0.00 in0.0 mm
02:50 AM 34.3°F1.3°C 31.4°F-0.3°C 89% Calm Calm -- 30.15 in1021.0 mb 0.00 in0.0 mm 0.00 in0.0 mm 0.00 in0.0 mm
03:00 AM 34.3°F1.3°C 31.4°F-0.3°C 89% Calm Calm -- 30.15 in1021.0 mb 0.00 in0.0 mm 0.00 in0.0 mm 0.00 in0.0 mm
03:03 AM 34.3°F1.3°C 31.4°F-0.3°C 89% Calm Calm -- 30.15 in1021.0 mb 0.00 in0.0 mm 0.00 in0.0 mm 0.00 in0.0 mm
03:10 AM 34.3°F1.3°C 31.4°F-0.3°C 89% Calm Calm -- 30.14 in1020.7 mb 0.00 in0.0 mm 0.00 in0.0 mm 0.00 in0.0 mm
03:20 AM 34.3°F1.3°C 31.4°F-0.3°C 89% Calm Calm -- 30.14 in1020.7 mb 0.00 in0.0 mm 0.00 in0.0 mm 0.00 in0.0 mm
03:30 AM 34.3°F1.3°C 31.4°F-0.3°C 89% 0.3 mph NNW0.5 kmh NNW 1.3 mph2.1 kmh 30.14 in1020.7 mb 0.00 in0.0 mm 0.00 in0.0 mm 0.00 in0.0 mm
03:40 AM 34.3°F1.3°C 31.4°F-0.3°C 89% Calm Calm -- 30.14 in1020.7 mb 0.00 in0.0 mm 0.00 in0.0 mm 0.00 in0.0 mm
03:50 AM 34.3°F1.3°C 31.4°F-0.3°C 89% Calm Calm -- 30.14 in1020.7 mb 0.00 in0.0 mm 0.00 in0.0 mm 0.00 in0.0 mm
04:00 AM 34.0°F1.1°C 31.4°F-0.3°C 90% Calm Calm -- 30.13 in1020.3 mb 0.00 in0.0 mm 0.00 in0.0 mm 0.00 in0.0 mm
04:10 AM 33.8°F1.0°C 31.2°F-0.4°C 90% Calm Calm -- 30.12 in1020.0 mb 0.00 in0.0 mm 0.00 in0.0 mm 0.00 in0.0 mm
04:20 AM 33.6°F0.9°C 31.0°F-0.6°C 90% Calm Calm -- 30.13 in1020.3 mb 0.00 in0.0 mm 0.00 in0.0 mm 0.00 in0.0 mm
04:30 AM 34.0°F1.1°C 31.4°F-0.3°C 90% Calm Calm -- 30.12 in1020.0 mb 0.00 in0.0 mm 0.00 in0.0 mm 0.00 in0.0 mm
04:40 AM 34.2°F1.2°C 31.5°F-0.3°C 90% Calm Calm -- 30.13 in1020.3 mb 0.00 in0.0 mm 0.00 in0.0 mm 0.00 in0.0 mm
04:50 AM 34.3°F1.3°C 31.7°F-0.2°C 90% Calm Calm -- 30.13 in1020.3 mb 0.00 in0.0 mm 0.00 in0.0 mm 0.00 in0.0 mm
05:00 AM 34.3°F1.3°C 31.7°F-0.2°C 90% Calm Calm -- 30.13 in1020.3 mb 0.00 in0.0 mm 0.00 in0.0 mm 0.00 in0.0 mm
05:10 AM 34.2°F1.2°C 31.3°F-0.4°C 89% Calm Calm -- 30.13 in1020.3 mb 0.00 in0.0 mm 0.00 in0.0 mm 0.00 in0.0 mm
05:20 AM 34.0°F1.1°C 31.1°F-0.5°C 89% Calm Calm -- 30.12 in1020.0 mb 0.00 in0.0 mm 0.00 in0.0 mm 0.00 in0.0 mm
05:30 AM 34.0°F1.1°C 31.4°F-0.3°C 90% Calm Calm -- 30.12 in1020.0 mb 0.00 in0.0 mm 0.00 in0.0 mm 0.00 in0.0 mm
05:40 AM 33.8°F1.0°C 31.2°F-0.4°C 90% Calm Calm -- 30.12 in1020.0 mb 0.00 in0.0 mm 0.00 in0.0 mm 0.00 in0.0 mm
05:50 AM 33.6°F0.9°C 31.0°F-0.6°C 90% Calm Calm -- 30.12 in1020.0 mb 0.00 in0.0 mm 0.00 in0.0 mm 0.00 in0.0 mm
06:00 AM 33.8°F1.0°C 31.2°F-0.4°C 90% Calm Calm -- 30.11 in1019.6 mb 0.00 in0.0 mm 0.00 in0.0 mm 0.00 in0.0 mm
06:10 AM 33.8°F1.0°C 31.2°F-0.4°C 90% Calm Calm -- 30.11 in1019.6 mb 0.00 in0.0 mm 0.00 in0.0 mm 0.00 in0.0 mm
06:20 AM 34.3°F1.3°C 31.4°F-0.3°C 89% Calm Calm -- 30.10 in1019.3 mb 0.00 in0.0 mm 0.00 in0.0 mm 0.00 in0.0 mm
06:30 AM 34.3°F1.3°C 30.9°F-0.6°C 87% 0.5 mph NNW0.8 kmh NNW 2.7 mph4.3 kmh 30.10 in1019.3 mb 0.00 in0.0 mm 0.00 in0.0 mm 0.00 in0.0 mm
06:40 AM 34.3°F1.3°C 30.9°F-0.6°C 87% 0.4 mph NNW0.6 kmh NNW 2.7 mph4.3 kmh 30.09 in1019.0 mb 0.00 in0.0 mm 0.00 in0.0 mm 0.00 in0.0 mm
06:50 AM 34.7°F1.5°C 30.9°F-0.6°C 86% 0.3 mph N0.5 kmh N 1.6 mph2.6 kmh 30.09 in1019.0 mb 0.00 in0.0 mm 0.00 in0.0 mm 0.00 in0.0 mm
07:00 AM 34.5°F1.4°C 30.8°F-0.7°C 86% Calm Calm -- 30.09 in1019.0 mb 0.00 in0.0 mm 0.00 in0.0 mm 0.00 in0.0 mm
07:10 AM 34.9°F1.6°C 31.1°F-0.5°C 86% 0.7 mph NNW1.1 kmh NNW 3.4 mph5.5 kmh 30.09 in1019.0 mb 0.00 in0.0 mm 0.00 in0.0 mm 0.00 in0.0 mm
07:20 AM 35.2°F1.8°C 30.9°F-0.6°C 84% 1.0 mph NW1.6 kmh NW 3.4 mph5.5 kmh 30.09 in1019.0 mb 0.00 in0.0 mm 0.00 in0.0 mm 0.00 in0.0 mm
07:30 AM 35.2°F1.8°C 30.9°F-0.6°C 84% Calm Calm -- 30.09 in1019.0 mb 0.00 in0.0 mm 0.00 in0.0 mm 0.00 in0.0 mm
07:40 AM 35.2°F1.8°C 30.9°F-0.6°C 84% Calm Calm -- 30.09 in1019.0 mb 0.00 in0.0 mm 0.00 in0.0 mm 0.00 in0.0 mm
07:50 AM 35.2°F1.8°C 30.9°F-0.6°C 84% 0.4 mph N0.6 kmh N 2.0 mph3.2 kmh 30.08 in1018.6 mb 0.00 in0.0 mm 0.00 in0.0 mm 0.00 in0.0 mm
08:00 AM 35.8°F2.1°C 31.7°F-0.2°C 85% Calm Calm -- 30.09 in1019.0 mb 0.00 in0.0 mm 0.00 in0.0 mm 0.00 in0.0 mm
08:10 AM 35.2°F1.8°C 31.2°F-0.4°C 85% Calm Calm -- 30.09 in1019.0 mb 0.00 in0.0 mm 0.00 in0.0 mm 0.00 in0.0 mm
08:20 AM 35.4°F1.9°C 31.6°F-0.2°C 86% 2.0 mph NNW3.2 kmh NNW 5.6 mph9.0 kmh 30.09 in1019.0 mb 0.00 in0.0 mm 0.00 in0.0 mm 0.00 in0.0 mm
08:30 AM 35.2°F1.8°C 32.3°F0.2°C 89% 0.3 mph N0.5 kmh N 1.6 mph2.6 kmh 30.09 in1019.0 mb 0.00 in0.0 mm 0.00 in0.0 mm 0.00 in0.0 mm
08:40 AM 34.5°F1.4°C 31.6°F-0.2°C 89% 2.1 mph NW3.4 kmh NW 4.7 mph7.6 kmh 30.09 in1019.0 mb 0.00 in0.0 mm 0.00 in0.0 mm 0.00 in0.0 mm
08:50 AM 34.5°F1.4°C 31.9°F-0.1°C 90% 0.1 mph NNW0.2 kmh NNW 0.4 mph0.6 kmh 30.09 in1019.0 mb 0.00 in0.0 mm 0.00 in0.0 mm 0.00 in0.0 mm
09:00 AM 34.3°F1.3°C 32.0°F0.0°C 91% 1.0 mph N1.6 kmh N 2.5 mph4.0 kmh 30.09 in1019.0 mb 0.00 in0.0 mm 0.00 in0.0 mm 0.00 in0.0 mm
09:10 AM 34.5°F1.4°C 32.2°F0.1°C 91% 1.9 mph WNW3.1 kmh WNW 6.3 mph10.1 kmh 30.09 in1019.0 mb 0.00 in0.0 mm 0.00 in0.0 mm 0.00 in0.0 mm
09:20 AM 34.7°F1.5°C 32.3°F0.2°C 91% Calm Calm -- 30.09 in1019.0 mb 0.02 in0.5 mm 0.12 in3.0 mm 0.02 in0.5 mm
09:30 AM 34.5°F1.4°C 32.4°F0.2°C 92% Calm Calm -- 30.09 in1019.0 mb 0.02 in0.5 mm 0.00 in0.0 mm 0.02 in0.5 mm
09:40 AM 34.5°F1.4°C 32.4°F0.2°C 92% Calm Calm -- 30.09 in1019.0 mb 0.02 in0.5 mm 0.00 in0.0 mm 0.02 in0.5 mm
09:50 AM 34.5°F1.4°C 32.4°F0.2°C 92% Calm Calm -- 30.09 in1019.0 mb 0.02 in0.5 mm 0.00 in0.0 mm 0.02 in0.5 mm
10:00 AM 34.3°F1.3°C 32.3°F0.2°C 92% Calm Calm -- 30.09 in1019.0 mb 0.04 in1.0 mm 0.02 in0.5 mm 0.04 in1.0 mm
10:10 AM 34.3°F1.3°C 32.5°F0.3°C 93% Calm Calm -- 30.08 in1018.6 mb 0.04 in1.0 mm 0.00 in0.0 mm 0.04 in1.0 mm
10:20 AM 34.3°F1.3°C 32.5°F0.3°C 93% Calm Calm -- 30.08 in1018.6 mb 0.02 in0.5 mm 0.00 in0.0 mm 0.04 in1.0 mm
10:30 AM 34.3°F1.3°C 32.5°F0.3°C 93% Calm Calm -- 30.08 in1018.6 mb 0.02 in0.5 mm 0.00 in0.0 mm 0.04 in1.0 mm
10:40 AM 34.3°F1.3°C 32.8°F0.4°C 94% Calm Calm -- 30.08 in1018.6 mb 0.04 in1.0 mm 0.12 in3.0 mm 0.06 in1.5 mm
10:50 AM 34.3°F1.3°C 32.8°F0.4°C 94% Calm Calm -- 30.08 in1018.6 mb 0.04 in1.0 mm 0.00 in0.0 mm 0.06 in1.5 mm
11:00 AM 34.3°F1.3°C 32.8°F0.4°C 94% Calm Calm -- 30.07 in1018.3 mb 0.04 in1.0 mm 0.00 in0.0 mm 0.08 in2.0 mm
11:10 AM 34.3°F1.3°C 32.8°F0.4°C 94% Calm Calm -- 30.08 in1018.6 mb 0.04 in1.0 mm 0.00 in0.0 mm 0.08 in2.0 mm
11:20 AM 34.3°F1.3°C 32.8°F0.4°C 94% Calm Calm -- 30.07 in1018.3 mb 0.06 in1.5 mm 0.12 in3.0 mm 0.10 in2.5 mm
11:30 AM 34.3°F1.3°C 32.8°F0.4°C 94% Calm Calm -- 30.07 in1018.3 mb 0.06 in1.5 mm 0.00 in0.0 mm 0.10 in2.5 mm
11:40 AM 34.5°F1.4°C 33.0°F0.6°C 94% Calm Calm -- 30.06 in1017.9 mb 0.04 in1.0 mm 0.00 in0.0 mm 0.10 in2.5 mm
11:50 AM 34.3°F1.3°C 32.8°F0.4°C 94% Calm Calm -- 30.05 in1017.6 mb 0.04 in1.0 mm 0.00 in0.0 mm 0.10 in2.5 mm
12:00 PM 34.3°F1.3°C 33.1°F0.6°C 95% Calm Calm -- 30.04 in1017.3 mb 0.02 in0.5 mm 0.00 in0.0 mm 0.10 in2.5 mm
12:10 PM 34.3°F1.3°C 33.1°F0.6°C 95% Calm Calm -- 30.04 in1017.3 mb 0.02 in0.5 mm 0.00 in0.0 mm 0.10 in2.5 mm
12:20 PM 34.3°F1.3°C 33.1°F0.6°C 95% Calm Calm -- 30.04 in1017.3 mb 0.02 in0.5 mm 0.00 in0.0 mm 0.12 in3.0 mm
12:30 PM 34.7°F1.5°C 33.4°F0.8°C 95% Calm Calm -- 30.03 in1016.9 mb 0.02 in0.5 mm 0.00 in0.0 mm 0.12 in3.0 mm
12:40 PM 34.9°F1.6°C 33.6°F0.9°C 95% 0.4 mph NNW0.6 kmh NNW 2.0 mph3.2 kmh 30.02 in1016.6 mb 0.04 in1.0 mm 0.12 in3.0 mm 0.14 in3.6 mm
12:50 PM 35.2°F1.8°C 34.0°F1.1°C 95% 0.9 mph NNW1.4 kmh NNW 3.1 mph5.0 kmh 30.02 in1016.6 mb 0.04 in1.0 mm 0.00 in0.0 mm 0.14 in3.6 mm
01:00 PM 35.4°F1.9°C 34.1°F1.2°C 95% 1.9 mph NNW3.1 kmh NNW 4.5 mph7.2 kmh 30.01 in1016.3 mb 0.04 in1.0 mm 0.00 in0.0 mm 0.14 in3.6 mm
01:10 PM 35.4°F1.9°C 34.1°F1.2°C 95% 0.5 mph N0.8 kmh N 2.0 mph3.2 kmh 30.01 in1016.3 mb 0.06 in1.5 mm 0.12 in3.0 mm 0.16 in4.1 mm
01:20 PM 35.6°F2.0°C 34.3°F1.3°C 95% 2.2 mph NNW3.5 kmh NNW 6.5 mph10.5 kmh 30.00 in1015.9 mb 0.04 in1.0 mm 0.00 in0.0 mm 0.16 in4.1 mm
01:30 PM 35.4°F1.9°C 34.1°F1.2°C 95% 0.7 mph NW1.1 kmh NW 3.1 mph5.0 kmh 30.00 in1015.9 mb 0.06 in1.5 mm 0.12 in3.0 mm 0.18 in4.6 mm
01:40 PM 35.8°F2.1°C 34.5°F1.4°C 95% 2.3 mph NW3.7 kmh NW 7.8 mph12.6 kmh 29.99 in1015.6 mb 0.04 in1.0 mm 0.00 in0.0 mm 0.18 in4.6 mm
01:50 PM 35.8°F2.1°C 34.5°F1.4°C 95% 0.5 mph N0.8 kmh N 2.2 mph3.5 kmh 29.98 in1015.2 mb 0.04 in1.0 mm 0.00 in0.0 mm 0.18 in4.6 mm
02:00 PM 36.0°F2.2°C 34.7°F1.5°C 95% 3.5 mph NNW5.6 kmh NNW 5.6 mph9.0 kmh 29.97 in1014.9 mb 0.04 in1.0 mm 0.00 in0.0 mm 0.18 in4.6 mm
02:10 PM 36.3°F2.4°C 34.8°F1.6°C 94% 2.6 mph NW4.2 kmh NW 9.2 mph14.8 kmh 29.97 in1014.9 mb 0.02 in0.5 mm 0.00 in0.0 mm 0.18 in4.6 mm
02:20 PM 36.5°F2.5°C 34.9°F1.6°C 94% Calm Calm -- 29.96 in1014.6 mb 0.04 in1.0 mm 0.12 in3.0 mm 0.20 in5.1 mm
02:30 PM 36.5°F2.5°C 34.9°F1.6°C 94% 1.1 mph NW1.8 kmh NW 5.1 mph8.2 kmh 29.96 in1014.6 mb 0.02 in0.5 mm 0.00 in0.0 mm 0.20 in5.1 mm
02:40 PM 36.7°F2.6°C 35.1°F1.7°C 94% 1.2 mph NW1.9 kmh NW 3.1 mph5.0 kmh 29.95 in1014.2 mb 0.02 in0.5 mm 0.00 in0.0 mm 0.20 in5.1 mm
02:50 PM 36.7°F2.6°C 35.1°F1.7°C 94% 1.7 mph NW2.7 kmh NW 5.6 mph9.0 kmh 29.95 in1014.2 mb 0.02 in0.5 mm 0.00 in0.0 mm 0.20 in5.1 mm
03:00 PM 36.7°F2.6°C 35.4°F1.9°C 95% 0.5 mph NW0.8 kmh NW 2.0 mph3.2 kmh 29.95 in1014.2 mb 0.02 in0.5 mm 0.00 in0.0 mm 0.20 in5.1 mm
03:10 PM 37.2°F2.9°C 35.9°F2.2°C 95% 0.4 mph NW0.6 kmh NW 2.5 mph4.0 kmh 29.94 in1013.9 mb 0.02 in0.5 mm 0.00 in0.0 mm 0.20 in5.1 mm
03:20 PM 37.2°F2.9°C 35.9°F2.2°C 95% 0.9 mph NW1.4 kmh NW 2.5 mph4.0 kmh 29.93 in1013.5 mb 0.00 in0.0 mm 0.00 in0.0 mm 0.20 in5.1 mm
03:30 PM 37.4°F3.0°C 36.1°F2.3°C 95% 1.4 mph NNW2.3 kmh NNW 7.4 mph11.9 kmh 29.93 in1013.5 mb 0.00 in0.0 mm 0.00 in0.0 mm 0.20 in5.1 mm
03:40 PM 37.2°F2.9°C 35.9°F2.2°C 95% Calm Calm -- 29.92 in1013.2 mb 0.00 in0.0 mm 0.00 in0.0 mm 0.20 in5.1 mm
03:50 PM 37.2°F2.9°C 35.9°F2.2°C 95% Calm Calm -- 29.92 in1013.2 mb 0.00 in0.0 mm 0.00 in0.0 mm 0.20 in5.1 mm
04:00 PM 37.4°F3.0°C 36.4°F2.4°C 96% Calm Calm -- 29.91 in1012.9 mb 0.00 in0.0 mm 0.00 in0.0 mm 0.20 in5.1 mm
04:10 PM 37.6°F3.1°C 36.5°F2.5°C 96% 1.1 mph W1.8 kmh W 3.6 mph5.8 kmh 29.92 in1013.2 mb 0.00 in0.0 mm 0.00 in0.0 mm 0.20 in5.1 mm
04:20 PM 37.6°F3.1°C 36.5°F2.5°C 96% 0.2 mph SW0.3 kmh SW 1.3 mph2.1 kmh 29.91 in1012.9 mb 0.00 in0.0 mm 0.00 in0.0 mm 0.20 in5.1 mm
04:30 PM 37.9°F3.3°C 36.9°F2.7°C 96% 1.9 mph SW3.1 kmh SW 5.1 mph8.2 kmh 29.91 in1012.9 mb 0.00 in0.0 mm 0.00 in0.0 mm 0.20 in5.1 mm
04:40 PM 38.1°F3.4°C 37.1°F2.8°C 96% 0.7 mph WSW1.1 kmh WSW 4.7 mph7.6 kmh 29.90 in1012.5 mb 0.00 in0.0 mm 0.00 in0.0 mm 0.20 in5.1 mm
04:50 PM 38.1°F3.4°C 37.1°F2.8°C 96% 0.8 mph WSW1.3 kmh WSW 4.7 mph7.6 kmh 29.90 in1012.5 mb 0.00 in0.0 mm 0.00 in0.0 mm 0.20 in5.1 mm
05:00 PM 38.1°F3.4°C 37.1°F2.8°C 96% 0.9 mph SSW1.4 kmh SSW 1.6 mph2.6 kmh 29.88 in1011.9 mb 0.02 in0.5 mm 0.02 in0.5 mm 0.22 in5.6 mm
05:10 PM 38.5°F3.6°C 37.4°F3.0°C 96% 1.5 mph NW2.4 kmh NW 3.8 mph6.1 kmh 29.88 in1011.9 mb 0.02 in0.5 mm 0.00 in0.0 mm 0.22 in5.6 mm
05:20 PM 38.5°F3.6°C 37.4°F3.0°C 96% 1.1 mph WNW1.8 kmh WNW 5.1 mph8.2 kmh 29.88 in1011.9 mb 0.04 in1.0 mm 0.12 in3.0 mm 0.24 in6.1 mm
05:30 PM 38.5°F3.6°C 37.4°F3.0°C 96% 2.4 mph NNW3.9 kmh NNW 10.3 mph16.6 kmh 29.87 in1011.5 mb 0.04 in1.0 mm 0.00 in0.0 mm 0.24 in6.1 mm
05:40 PM 38.5°F3.6°C 37.4°F3.0°C 96% 3.0 mph WNW4.8 kmh WNW 4.5 mph7.2 kmh 29.86 in1011.2 mb 0.04 in1.0 mm 0.00 in0.0 mm 0.24 in6.1 mm
05:50 PM 38.5°F3.6°C 37.4°F3.0°C 96% 0.8 mph NNW1.3 kmh NNW 3.8 mph6.1 kmh 29.86 in1011.2 mb 0.02 in0.5 mm 0.00 in0.0 mm 0.24 in6.1 mm
06:00 PM 38.8°F3.8°C 37.8°F3.2°C 96% 1.9 mph W3.1 kmh W 6.3 mph10.1 kmh 29.85 in1010.8 mb 0.02 in0.5 mm 0.00 in0.0 mm 0.24 in6.1 mm
06:10 PM 38.8°F3.8°C 37.8°F3.2°C 96% 0.8 mph NW1.3 kmh NW 3.1 mph5.0 kmh 29.85 in1010.8 mb 0.02 in0.5 mm 0.00 in0.0 mm 0.24 in6.1 mm
06:20 PM 38.8°F3.8°C 38.1°F3.4°C 97% 1.0 mph WSW1.6 kmh WSW 4.3 mph6.9 kmh 29.84 in1010.5 mb 0.00 in0.0 mm 0.00 in0.0 mm 0.24 in6.1 mm
06:30 PM 38.8°F3.8°C 38.1°F3.4°C 97% 2.6 mph WNW4.2 kmh WNW 6.9 mph11.1 kmh 29.83 in1010.2 mb 0.02 in0.5 mm 0.12 in3.0 mm 0.27 in6.9 mm
06:40 PM 39.0°F3.9°C 38.2°F3.4°C 97% 2.1 mph W3.4 kmh W 6.5 mph10.5 kmh 29.83 in1010.2 mb 0.02 in0.5 mm 0.00 in0.0 mm 0.27 in6.9 mm
06:50 PM 39.2°F4.0°C 38.4°F3.6°C 97% 2.7 mph NW4.3 kmh NW 9.4 mph15.1 kmh 29.83 in1010.2 mb 0.02 in0.5 mm 0.00 in0.0 mm 0.27 in6.9 mm
07:00 PM 39.4°F4.1°C 38.6°F3.7°C 97% 3.2 mph WSW5.1 kmh WSW 8.1 mph13.0 kmh 29.82 in1009.8 mb 0.02 in0.5 mm 0.00 in0.0 mm 0.27 in6.9 mm
07:10 PM 39.4°F4.1°C 38.6°F3.7°C 97% 4.1 mph NW6.6 kmh NW 12.5 mph20.1 kmh 29.81 in1009.5 mb 0.02 in0.5 mm 0.00 in0.0 mm 0.27 in6.9 mm
07:20 PM 39.4°F4.1°C 38.6°F3.7°C 97% 2.8 mph NNW4.5 kmh NNW 6.0 mph9.7 kmh 29.81 in1009.5 mb 0.04 in1.0 mm 0.12 in3.0 mm 0.29 in7.4 mm
07:30 PM 39.4°F4.1°C 38.6°F3.7°C 97% 5.4 mph NW8.7 kmh NW 11.9 mph19.2 kmh 29.81 in1009.5 mb 0.02 in0.5 mm 0.00 in0.0 mm 0.29 in7.4 mm
07:40 PM 39.7°F4.3°C 39.0°F3.9°C 97% 6.0 mph WSW9.7 kmh WSW 9.2 mph14.8 kmh 29.81 in1009.5 mb 0.02 in0.5 mm 0.00 in0.0 mm 0.29 in7.4 mm
07:50 PM 39.9°F4.4°C 39.1°F3.9°C 97% 4.2 mph W6.8 kmh W 11.9 mph19.2 kmh 29.81 in1009.5 mb 0.04 in1.0 mm 0.12 in3.0 mm 0.31 in7.9 mm
08:00 PM 39.9°F4.4°C 39.1°F3.9°C 97% 4.1 mph WSW6.6 kmh WSW 8.9 mph14.3 kmh 29.80 in1009.1 mb 0.04 in1.0 mm 0.00 in0.0 mm 0.31 in7.9 mm
08:10 PM 40.3°F4.6°C 39.5°F4.2°C 97% 3.8 mph WSW6.1 kmh WSW 6.5 mph10.5 kmh 29.79 in1008.8 mb 0.06 in1.5 mm 0.12 in3.0 mm 0.33 in8.4 mm
08:20 PM 40.6°F4.8°C 39.6°F4.2°C 96% 6.6 mph WSW10.6 kmh WSW 8.9 mph14.3 kmh 29.79 in1008.8 mb 0.04 in1.0 mm 0.00 in0.0 mm 0.33 in8.4 mm
08:30 PM 41.2°F5.1°C 40.1°F4.5°C 96% 8.0 mph WSW12.9 kmh WSW 16.6 mph26.7 kmh 29.79 in1008.8 mb 0.06 in1.5 mm 0.12 in3.0 mm 0.35 in8.9 mm
08:40 PM 41.4°F5.2°C 40.0°F4.4°C 95% 9.1 mph WSW14.6 kmh WSW 11.2 mph18.0 kmh 29.78 in1008.5 mb 0.06 in1.5 mm 0.00 in0.0 mm 0.35 in8.9 mm
08:50 PM 41.5°F5.3°C 40.2°F4.6°C 95% 8.1 mph WSW13.0 kmh WSW 15.2 mph24.5 kmh 29.77 in1008.1 mb 0.04 in1.0 mm 0.00 in0.0 mm 0.35 in8.9 mm
09:00 PM 41.5°F5.3°C 39.9°F4.4°C 94% 2.3 mph W3.7 kmh W 9.4 mph15.1 kmh 29.78 in1008.5 mb 0.06 in1.5 mm 0.02 in0.5 mm 0.37 in9.4 mm
09:10 PM 41.7°F5.4°C 40.4°F4.7°C 95% 9.3 mph WSW15.0 kmh WSW 13.2 mph21.2 kmh 29.78 in1008.5 mb 0.04 in1.0 mm 0.00 in0.0 mm 0.37 in9.4 mm
09:20 PM 41.9°F5.5°C 40.3°F4.6°C 94% 6.3 mph W10.1 kmh W 9.8 mph15.8 kmh 29.77 in1008.1 mb 0.04 in1.0 mm 0.00 in0.0 mm 0.37 in9.4 mm
09:30 PM 42.1°F5.6°C 40.5°F4.7°C 94% 7.7 mph W12.4 kmh W 12.1 mph19.5 kmh 29.77 in1008.1 mb 0.04 in1.0 mm 0.00 in0.0 mm 0.39 in9.9 mm
09:40 PM 41.9°F5.5°C 40.3°F4.6°C 94% 4.1 mph SW6.6 kmh SW 11.2 mph18.0 kmh 29.77 in1008.1 mb 0.04 in1.0 mm 0.00 in0.0 mm 0.39 in9.9 mm
09:50 PM 42.1°F5.6°C 40.5°F4.7°C 94% 2.7 mph WNW4.3 kmh WNW 7.4 mph11.9 kmh 29.76 in1007.8 mb 0.04 in1.0 mm 0.00 in0.0 mm 0.39 in9.9 mm
10:00 PM 42.6°F5.9°C 40.5°F4.7°C 92% 8.3 mph W13.4 kmh W 11.4 mph18.3 kmh 29.75 in1007.5 mb 0.02 in0.5 mm 0.00 in0.0 mm 0.39 in9.9 mm
10:10 PM 43.0°F6.1°C 40.5°F4.7°C 91% 8.7 mph W14.0 kmh W 12.3 mph19.8 kmh 29.75 in1007.5 mb 0.02 in0.5 mm 0.00 in0.0 mm 0.39 in9.9 mm
10:20 PM 43.0°F6.1°C 40.5°F4.7°C 91% 12.1 mph SW19.5 kmh SW 19.5 mph31.4 kmh 29.75 in1007.5 mb 0.04 in1.0 mm 0.12 in3.0 mm 0.41 in10.4 mm
10:30 PM 42.6°F5.9°C 40.2°F4.6°C 91% 8.4 mph SSW13.5 kmh SSW 20.1 mph32.3 kmh 29.74 in1007.1 mb 0.02 in0.5 mm 0.00 in0.0 mm 0.41 in10.4 mm
10:40 PM 43.0°F6.1°C 40.0°F4.4°C 89% 14.9 mph SSW24.0 kmh SSW 20.1 mph32.3 kmh 29.74 in1007.1 mb 0.04 in1.0 mm 0.12 in3.0 mm 0.43 in10.9 mm
10:50 PM 42.6°F5.9°C 39.9°F4.4°C 90% 8.2 mph W13.2 kmh W 15.2 mph24.5 kmh 29.73 in1006.8 mb 0.06 in1.5 mm 0.12 in3.0 mm 0.45 in11.4 mm
11:00 PM 43.0°F6.1°C 40.0°F4.4°C 89% 11.9 mph SW19.2 kmh SW 18.8 mph30.3 kmh 29.73 in1006.8 mb 0.06 in1.5 mm 0.00 in0.0 mm 0.45 in11.4 mm
11:10 PM 43.2°F6.2°C 39.8°F4.3°C 88% 10.0 mph WSW16.1 kmh WSW 12.1 mph19.5 kmh 29.73 in1006.8 mb 0.08 in2.0 mm 0.12 in3.0 mm 0.47 in11.9 mm
11:20 PM 42.6°F5.9°C 39.6°F4.2°C 89% 7.0 mph W11.3 kmh W 12.1 mph19.5 kmh 29.73 in1006.8 mb 0.06 in1.5 mm 0.00 in0.0 mm 0.47 in11.9 mm
11:30 PM 42.4°F5.8°C 39.7°F4.3°C 90% 3.2 mph WSW5.1 kmh WSW 5.4 mph8.7 kmh 29.72 in1006.4 mb 0.08 in2.0 mm 0.12 in3.0 mm 0.49 in12.4 mm
11:40 PM 42.6°F5.9°C 39.6°F4.2°C 89% 6.1 mph SW9.8 kmh SW 9.4 mph15.1 kmh 29.71 in1006.1 mb 0.06 in1.5 mm 0.00 in0.0 mm 0.49 in12.4 mm
11:50 PM 42.6°F5.9°C 39.3°F4.1°C 88% 5.2 mph WSW8.4 kmh WSW 9.4 mph15.1 kmh 29.70 in1005.8 mb 0.04 in1.0 mm 0.00 in0.0 mm 0.49 in12.4 mm